Time;durP1;ratioP1;P1;durP2;ratioP2;P2;SDS_P1;SDS_P2;PMS_P1;PMS_P2;Temp;Humidity;BMP_temperature;BMP_pressure;BME280_temperature;BME280_humidity;BME280_pressure;Samples;Min_cycle;Max_cycle;Signal;HPM_P1;HPM_P2
2023/09/06 00:00:29;;;;;;;0.00;0.00;;;;;;;28.58;50.26;101993.59;5051653;28;20120;-67
2023/09/06 00:02:56;;;;;;;0.00;0.00;;;;;;;28.58;49.99;102002.72;5051728;28;20087;-67
2023/09/06 00:05:21;;;;;;;0.00;0.00;;;;;;;28.46;50.92;101993.38;5051474;28;20029;-67
2023/09/06 00:07:47;;;;;;;0.00;0.00;;;;;;;28.44;50.57;102009.47;5051922;28;20056;-67
2023/09/06 00:10:14;;;;;;;0.00;0.00;;;;;;;28.22;51.16;102001.19;5051620;28;20060;-66
2023/09/06 00:12:40;;;;;;;0.00;0.00;;;;;;;28.18;51.41;102001.00;5051190;28;20033;-67
2023/09/06 00:15:06;;;;;;;0.00;0.00;;;;;;;28.22;50.85;101990.94;5051351;28;20040;-67
2023/09/06 00:17:31;;;;;;;0.00;0.00;;;;;;;28.37;51.11;101996.06;5051344;28;20040;-67
2023/09/06 00:19:56;;;;;;;0.00;0.00;;;;;;;28.38;51.25;101992.16;5051773;28;20711;-67
2023/09/06 00:22:22;;;;;;;0.00;0.00;;;;;;;28.26;50.62;101996.66;5051263;28;20405;-67
2023/09/06 00:24:47;;;;;;;0.00;0.00;;;;;;;28.13;51.50;101990.06;5051358;28;20041;-67
2023/09/06 00:27:14;;;;;;;0.00;0.00;;;;;;;28.11;51.49;101995.06;5061530;28;20036;-67
2023/09/06 00:29:41;;;;;;;0.00;0.00;;;;;;;28.27;51.07;101989.97;5067928;28;20067;-67
2023/09/06 00:32:06;;;;;;;0.00;0.00;;;;;;;28.26;51.31;101988.34;5051842;28;20029;-67
2023/09/06 00:34:33;;;;;;;0.00;0.00;;;;;;;28.17;51.48;101985.53;5051072;28;20053;-66
2023/09/06 00:37:01;;;;;;;0.00;0.00;;;;;;;28.16;51.39;101994.16;5050629;28;20039;-66
2023/09/06 00:39:30;;;;;;;0.00;0.00;;;;;;;28.14;51.18;101983.41;5050975;28;20032;-67
2023/09/06 00:41:55;;;;;;;0.00;0.00;;;;;;;28.21;51.15;101980.19;5051031;28;20025;-68
2023/09/06 00:44:20;;;;;;;0.00;0.00;;;;;;;28.10;51.35;101976.88;5052804;28;20642;-66
2023/09/06 00:46:46;;;;;;;0.00;0.00;;;;;;;27.88;52.15;101976.00;5071171;28;20025;-66
2023/09/06 00:49:11;;;;;;;0.00;0.00;;;;;;;27.76;52.69;101971.06;5089635;28;20045;-67
2023/09/06 00:51:37;;;;;;;0.00;0.00;;;;;;;27.72;52.33;101967.28;5090603;28;20036;-68
2023/09/06 00:54:03;;;;;;;0.00;0.00;;;;;;;27.97;51.85;101968.66;5090444;28;20039;-66
2023/09/06 00:56:29;;;;;;;0.00;0.00;;;;;;;27.87;51.55;101966.94;5105529;28;20039;-66
2023/09/06 00:58:54;;;;;;;0.00;0.00;;;;;;;27.86;51.81;101962.53;5091197;28;20024;-66
2023/09/06 01:01:20;;;;;;;0.00;0.00;;;;;;;28.04;51.28;101963.50;5084435;28;20503;-68
2023/09/06 01:03:45;;;;;;;0.00;0.00;;;;;;;27.99;52.54;101964.41;5070485;28;20139;-66
2023/09/06 01:06:18;;;;;;;0.00;0.00;;;;;;;27.96;52.08;101967.81;5070337;28;20051;-66
2023/09/06 01:08:49;;;;;;;0.00;0.00;;;;;;;28.05;51.73;101967.91;5070271;28;20178;-67
2023/09/06 01:11:21;;;;;;;0.00;0.00;;;;;;;28.02;51.75;101972.09;5070333;28;20017;-66
2023/09/06 01:14:01;;;;;;;0.00;0.00;;;;;;;28.16;51.75;101966.50;5070987;28;20099;-66
2023/09/06 01:16:40;;;;;;;0.00;0.00;;;;;;;27.84;53.45;101970.31;5070175;28;20560;-66
2023/09/06 01:19:11;;;;;;;0.00;0.00;;;;;;;27.96;52.67;101969.78;5070311;28;20033;-66
2023/09/06 01:21:47;;;;;;;0.00;0.00;;;;;;;27.94;52.31;101974.75;5070138;28;20052;-67
2023/09/06 01:24:14;;;;;;;0.00;0.00;;;;;;;27.78;53.24;101972.38;5086980;28;20402;-67
2023/09/06 01:26:39;;;;;;;0.00;0.00;;;;;;;27.84;52.98;101970.31;5090468;28;20154;-67
2023/09/06 01:29:05;;;;;;;0.00;0.00;;;;;;;27.80;53.01;101980.34;5090850;28;20028;-67
2023/09/06 01:31:30;;;;;;;0.00;0.00;;;;;;;27.95;52.08;101974.47;5071514;28;20035;-67
2023/09/06 01:33:56;;;;;;;0.00;0.00;;;;;;;28.00;52.00;101968.84;5070126;28;20045;-67
2023/09/06 01:36:21;;;;;;;0.03;0.03;;;;;;;28.12;51.09;101971.84;5069862;28;20504;-67
2023/09/06 01:38:46;;;;;;;0.00;0.00;;;;;;;28.11;51.45;101977.69;5069986;28;20039;-67
2023/09/06 01:41:12;;;;;;;0.00;0.00;;;;;;;28.04;51.39;101969.84;5070710;28;20032;-67
2023/09/06 01:43:38;;;;;;;0.00;0.00;;;;;;;27.94;51.75;101980.28;5069642;28;20682;-67
2023/09/06 01:46:03;;;;;;;0.00;0.00;;;;;;;27.95;51.09;101968.16;5069747;28;20385;-67
2023/09/06 01:48:29;;;;;;;0.00;0.00;;;;;;;27.92;50.85;101968.72;5082499;28;20051;-67
2023/09/06 01:50:55;;;;;;;0.00;0.00;;;;;;;27.82;51.43;101967.03;5090158;28;20028;-67
2023/09/06 01:53:22;;;;;;;0.00;0.00;;;;;;;27.75;51.86;101970.22;5089955;28;20051;-66
2023/09/06 01:55:48;;;;;;;0.00;0.00;;;;;;;27.60;52.26;101967.84;5090478;28;20036;-66
2023/09/06 01:58:13;;;;;;;0.00;0.00;;;;;;;27.66;51.96;101966.59;5078324;28;20098;-66
2023/09/06 02:00:39;;;;;;;0.00;0.00;;;;;;;27.51;52.56;101964.19;5069666;28;20028;-66
2023/09/06 02:03:06;;;;;;;0.00;0.00;;;;;;;27.73;52.21;101966.16;5069898;28;20032;-67
2023/09/06 02:05:32;;;;;;;0.00;0.00;;;;;;;27.91;51.15;101964.34;5073893;28;20020;-66
2023/09/06 02:07:58;;;;;;;0.00;0.00;;;;;;;27.83;51.29;101961.19;5074002;28;20092;-66
2023/09/06 02:10:24;;;;;;;0.00;0.00;;;;;;;27.67;50.69;101967.41;5073667;28;20048;-66
2023/09/06 02:12:49;;;;;;;0.00;0.00;;;;;;;27.75;50.69;101963.91;5073801;28;20033;-66
2023/09/06 02:15:15;;;;;;;0.00;0.00;;;;;;;27.73;51.28;101960.63;5073893;28;20024;-66
2023/09/06 02:17:42;;;;;;;0.00;0.00;;;;;;;27.73;50.57;101968.94;5073465;28;20638;-66
2023/09/06 02:20:20;;;;;;;0.00;0.00;;;;;;;27.87;50.31;101961.41;5088270;28;20032;-66
2023/09/06 02:22:56;;;;;;;0.00;0.00;;;;;;;27.90;50.50;101968.22;5075174;28;20129;-66
2023/09/06 02:25:24;;;;;;;0.00;0.00;;;;;;;27.84;49.85;101962.00;5093735;28;20039;-66
2023/09/06 02:27:50;;;;;;;0.00;0.00;;;;;;;27.80;49.99;101967.34;5088264;28;20025;-66
2023/09/06 02:30:17;;;;;;;0.00;0.00;;;;;;;27.85;50.29;101962.84;5073440;28;20033;-66
2023/09/06 02:32:42;;;;;;;0.00;0.00;;;;;;;27.88;49.79;101965.78;5073244;28;20032;-66
2023/09/06 02:35:08;;;;;;;0.00;0.00;;;;;;;27.87;50.67;101964.16;5073712;28;20028;-67
2023/09/06 02:37:34;;;;;;;0.00;0.00;;;;;;;27.89;49.34;101972.13;5072765;28;20746;-66
2023/09/06 02:40:00;;;;;;;0.00;0.00;;;;;;;27.69;50.59;101973.44;5072918;28;20125;-67
2023/09/06 02:42:26;;;;;;;0.00;0.00;;;;;;;27.85;50.13;101971.94;5073233;28;20051;-67
2023/09/06 02:44:52;;;;;;;0.00;0.00;;;;;;;27.98;49.28;101976.63;5086085;28;20028;-66
2023/09/06 02:47:17;;;;;;;0.00;0.00;;;;;;;27.98;49.44;101973.84;5092875;28;20040;-66
2023/09/06 02:49:47;;;;;;;0.00;0.00;;;;;;;27.76;50.54;101988.44;5093940;28;20032;-66
2023/09/06 02:52:20;;;;;;;0.00;0.00;;;;;;;27.71;50.12;101985.78;5093200;28;20032;-68
2023/09/06 02:54:46;;;;;;;0.00;0.00;;;;;;;27.73;50.44;101989.06;5079103;28;20032;-67
2023/09/06 02:57:14;;;;;;;0.00;0.00;;;;;;;27.83;50.04;101984.44;5072970;28;20484;-67
2023/09/06 02:59:39;;;;;;;0.00;0.00;;;;;;;27.43;50.94;101984.25;5072772;28;20029;-67
2023/09/06 03:02:05;;;;;;;0.00;0.00;;;;;;;27.48;51.38;101984.13;5073240;28;20559;-67
2023/09/06 03:04:37;;;;;;;0.00;0.00;;;;;;;27.62;50.51;101992.38;5072709;28;20032;-66
2023/09/06 03:07:07;;;;;;;0.00;0.00;;;;;;;27.53;50.47;101988.72;5072635;28;20447;-67
2023/09/06 03:09:36;;;;;;;0.00;0.00;;;;;;;27.35;50.96;101981.41;5064901;28;20032;-67
2023/09/06 03:12:12;;;;;;;0.00;0.00;;;;;;;27.45;51.03;101982.00;5072559;28;20063;-67
2023/09/06 03:14:44;;;;;;;0.00;0.00;;;;;;;27.59;50.27;101987.50;5072336;28;20056;-67
2023/09/06 03:17:13;;;;;;;0.00;0.00;;;;;;;27.57;50.44;101982.28;5072335;28;20044;-68
2023/09/06 03:19:41;;;;;;;0.00;0.00;;;;;;;27.67;49.97;101984.00;5072516;28;20128;-67
2023/09/06 03:22:09;;;;;;;0.00;0.00;;;;;;;27.76;49.30;101984.88;5072346;28;20055;-66
2023/09/06 03:24:36;;;;;;;0.00;0.00;;;;;;;27.78;49.78;101986.19;5072268;28;20433;-67
2023/09/06 03:27:07;;;;;;;0.00;0.00;;;;;;;27.57;49.78;101990.56;5054062;28;20484;-67
2023/09/06 03:29:38;;;;;;;0.00;0.00;;;;;;;27.45;50.90;101995.81;5071848;28;20055;-67
2023/09/06 03:32:07;;;;;;;0.00;0.00;;;;;;;27.28;50.78;101990.06;5072533;28;20037;-67
2023/09/06 03:34:33;;;;;;;0.00;0.00;;;;;;;26.92;51.76;101989.19;5072084;28;20468;-68
2023/09/06 03:36:59;;;;;;;0.00;0.00;;;;;;;27.42;50.46;101998.38;5072098;28;20156;-67
2023/09/06 03:39:28;;;;;;;0.00;0.00;;;;;;;27.44;50.42;101988.63;5072022;28;20040;-67
2023/09/06 03:41:56;;;;;;;0.00;0.00;;;;;;;27.86;49.03;101994.84;5072201;28;20044;-67
2023/09/06 03:44:21;;;;;;;0.00;0.00;;;;;;;27.65;49.07;101998.13;5074372;28;20027;-67
2023/09/06 03:46:48;;;;;;;0.00;0.00;;;;;;;27.53;49.96;102003.38;5074223;28;20044;-66
2023/09/06 03:49:15;;;;;;;0.00;0.00;;;;;;;27.42;49.75;101996.41;5091987;28;20048;-66
2023/09/06 03:51:40;;;;;;;0.00;0.00;;;;;;;27.44;50.32;101996.94;5072157;28;20032;-66
2023/09/06 03:54:06;;;;;;;0.00;0.00;;;;;;;27.36;49.79;102005.94;5071930;28;20653;-66
2023/09/06 03:56:31;;;;;;;0.00;0.00;;;;;;;27.34;50.18;102002.66;5053327;28;20047;-67
2023/09/06 03:59:00;;;;;;;0.00;0.00;;;;;;;27.31;49.95;102005.19;5072324;28;20058;-67
2023/09/06 04:01:27;;;;;;;0.00;0.00;;;;;;;27.15;50.56;102004.72;5066310;28;20037;-67
2023/09/06 04:03:52;;;;;;;0.00;0.00;;;;;;;27.12;50.64;102002.59;5051257;28;20095;-67
2023/09/06 04:06:19;;;;;;;0.00;0.00;;;;;;;26.93;51.06;102001.84;5054858;28;20025;-67
2023/09/06 04:08:45;;;;;;;0.00;0.00;;;;;;;26.84;51.03;102004.53;5067688;28;20052;-67
2023/09/06 04:11:10;;;;;;;0.00;0.00;;;;;;;26.75;51.96;102002.78;5057973;28;20029;-67
2023/09/06 04:13:35;;;;;;;0.10;0.10;;;;;;;26.81;50.72;102004.31;5071010;28;20032;-66
2023/09/06 04:16:01;;;;;;;0.00;0.00;;;;;;;26.68;51.82;101999.56;5071561;28;20047;-66
2023/09/06 04:18:28;;;;;;;0.00;0.00;;;;;;;26.78;51.24;102004.91;5070410;28;20048;-66
2023/09/06 04:20:53;;;;;;;0.00;0.00;;;;;;;26.90;51.09;102010.75;5071402;28;20050;-66
2023/09/06 04:23:19;;;;;;;0.00;0.00;;;;;;;26.78;51.39;102010.44;5071193;28;20032;-67
2023/09/06 04:25:44;;;;;;;0.00;0.00;;;;;;;27.00;50.57;102004.22;5072115;28;20036;-67
2023/09/06 04:28:12;;;;;;;0.00;0.00;;;;;;;26.73;50.63;102008.59;5069700;28;20056;-67
2023/09/06 04:30:40;;;;;;;0.00;0.00;;;;;;;27.17;49.87;102007.97;5059446;28;20049;-67
2023/09/06 04:33:08;;;;;;;0.00;0.00;;;;;;;26.75;50.91;102008.31;5058206;28;20032;-67
2023/09/06 04:35:44;;;;;;;0.00;0.00;;;;;;;26.62;50.46;102001.59;5071170;28;20040;-67
2023/09/06 04:38:16;;;;;;;0.00;0.00;;;;;;;26.45;50.97;102015.16;5071276;28;20419;-67
2023/09/06 04:40:46;;;;;;;0.00;0.00;;;;;;;26.27;52.15;102018.78;5071312;28;20036;-67
2023/09/06 04:43:12;;;;;;;0.00;0.00;;;;;;;26.23;51.91;102012.25;5070835;28;20090;-67
2023/09/06 04:45:38;;;;;;;0.00;0.00;;;;;;;26.18;52.34;102017.81;5089457;28;20071;-67
2023/09/06 04:48:11;;;;;;;0.00;0.00;;;;;;;26.25;51.78;102018.25;5060929;28;20499;-67
2023/09/06 04:50:40;;;;;;;0.10;0.10;;;;;;;26.22;52.14;102020.81;5050547;28;20116;-67
2023/09/06 04:53:08;;;;;;;0.00;0.00;;;;;;;26.10;51.62;102018.53;5050920;28;20040;-67
2023/09/06 04:55:35;;;;;;;0.00;0.00;;;;;;;26.12;53.00;102021.81;5032373;28;20033;-67
2023/09/06 04:58:04;;;;;;;0.08;0.08;;;;;;;26.28;52.27;102022.38;5050413;28;20033;-67
2023/09/06 05:00:37;;;;;;;0.00;0.00;;;;;;;26.43;52.41;102024.84;5015187;28;20055;-66
2023/09/06 05:03:04;;;;;;;0.00;0.00;;;;;;;26.32;52.34;102020.63;5032274;28;20072;-66
2023/09/06 05:05:30;;;;;;;0.00;0.00;;;;;;;26.32;52.71;102026.16;5050340;28;20419;-66
2023/09/06 05:07:55;;;;;;;0.00;0.00;;;;;;;26.41;52.06;102018.81;5056425;28;20032;-67
2023/09/06 05:10:21;;;;;;;0.00;0.00;;;;;;;26.19;53.25;102022.22;5051101;28;20044;-66
2023/09/06 05:12:46;;;;;;;0.00;0.00;;;;;;;26.27;52.53;102029.81;5065414;28;20095;-67
2023/09/06 05:15:13;;;;;;;0.00;0.00;;;;;;;26.51;51.58;102033.25;5058470;28;20404;-67
2023/09/06 05:17:41;;;;;;;0.00;0.00;;;;;;;26.51;51.53;102033.25;5060274;28;20033;-66
2023/09/06 05:20:32;;;;;;;0.08;0.08;;;;;;;26.93;50.66;102038.53;5059262;28;20085;-67
2023/09/06 05:23:03;;;;;;;0.00;0.00;;;;;;;26.60;51.78;102047.97;5054053;28;20049;-67
2023/09/06 05:25:28;;;;;;;0.00;0.00;;;;;;;26.79;51.11;102042.44;5048205;28;20550;-68
2023/09/06 05:28:00;;;;;;;0.00;0.00;;;;;;;26.68;51.29;102047.28;5049853;28;20040;-67
2023/09/06 05:30:26;;;;;;;0.00;0.00;;;;;;;26.45;52.12;102045.50;5049947;28;20033;-67
2023/09/06 05:32:51;;;;;;;0.00;0.00;;;;;;;26.43;52.29;102046.91;5049535;28;20028;-67
2023/09/06 05:35:17;;;;;;;0.00;0.00;;;;;;;26.52;52.09;102047.84;5049614;28;20488;-67
2023/09/06 05:37:42;;;;;;;0.00;0.00;;;;;;;26.51;52.06;102049.78;5049836;28;20086;-67
2023/09/06 05:40:09;;;;;;;0.00;0.00;;;;;;;26.73;51.45;102057.44;5049113;28;20174;-67
2023/09/06 05:42:34;;;;;;;0.00;0.00;;;;;;;26.83;50.95;102055.28;5049430;28;20083;-67
2023/09/06 05:45:00;;;;;;;0.00;0.00;;;;;;;26.58;52.44;102058.47;5078741;28;20123;-68
2023/09/06 05:47:25;;;;;;;0.00;0.00;;;;;;;26.65;51.89;102058.09;5054978;28;20374;-67
2023/09/06 05:49:55;;;;;;;0.00;0.00;;;;;;;26.67;51.77;102058.63;5062192;28;20048;-68
2023/09/06 05:52:22;;;;;;;0.00;0.00;;;;;;;26.71;51.77;102066.00;5048215;28;20059;-67
2023/09/06 05:54:48;;;;;;;0.00;0.00;;;;;;;26.69;51.86;102065.44;5048098;28;20048;-67
2023/09/06 05:57:14;;;;;;;0.00;0.00;;;;;;;26.82;51.12;102067.47;5048547;28;20036;-67
2023/09/06 05:59:39;;;;;;;0.00;0.00;;;;;;;26.71;51.85;102065.19;5048272;28;20060;-68
2023/09/06 06:02:05;;;;;;;0.00;0.00;;;;;;;26.77;51.03;102067.53;5052611;28;20020;-67
2023/09/06 06:04:30;;;;;;;0.00;0.00;;;;;;;27.05;50.82;102064.81;5059111;28;20040;-67
2023/09/06 06:06:56;;;;;;;0.00;0.00;;;;;;;27.10;50.65;102065.53;5058701;28;20434;-66
2023/09/06 06:09:24;;;;;;;0.00;0.00;;;;;;;26.89;51.53;102062.34;5059035;28;20041;-67
2023/09/06 06:11:53;;;;;;;0.00;0.00;;;;;;;27.19;49.85;102068.38;5063114;28;20056;-67
2023/09/06 06:14:18;;;;;;;0.00;0.00;;;;;;;27.15;50.31;102067.38;5051926;28;20033;-67
2023/09/06 06:16:44;;;;;;;0.00;0.00;;;;;;;27.20;50.37;102075.56;5063643;28;20031;-67
2023/09/06 06:19:09;;;;;;;0.00;0.00;;;;;;;27.26;50.01;102066.84;5048355;28;20075;-67
2023/09/06 06:21:35;;;;;;;0.00;0.00;;;;;;;27.34;50.20;102068.94;5048643;28;20044;-67
2023/09/06 06:24:01;;;;;;;0.00;0.00;;;;;;;27.40;49.57;102067.69;5048198;28;20029;-67
2023/09/06 06:26:27;;;;;;;0.00;0.00;;;;;;;27.33;49.76;102072.00;5050589;28;20059;-67
2023/09/06 06:28:52;;;;;;;0.00;0.00;;;;;;;27.04;49.89;102074.22;5069380;28;20024;-67
2023/09/06 06:31:17;;;;;;;0.00;0.00;;;;;;;27.40;49.70;102075.19;5068522;28;20385;-67
2023/09/06 06:33:43;;;;;;;0.00;0.00;;;;;;;27.51;49.44;102071.91;5068548;28;20056;-67
2023/09/06 06:36:09;;;;;;;0.00;0.00;;;;;;;27.57;49.61;102076.19;5040804;28;20681;-67
2023/09/06 06:38:34;;;;;;;0.00;0.00;;;;;;;27.61;49.09;102084.66;5056733;28;20040;-67
2023/09/06 06:41:00;;;;;;;0.00;0.00;;;;;;;27.61;49.34;102085.50;5051973;28;20479;-66
2023/09/06 06:43:27;;;;;;;0.00;0.00;;;;;;;27.36;50.55;102088.75;5059827;28;20037;-67
2023/09/06 06:45:54;;;;;;;0.00;0.00;;;;;;;27.73;49.18;102096.00;5057084;28;20052;-67
2023/09/06 06:48:20;;;;;;;0.00;0.00;;;;;;;27.57;49.15;102090.00;5075659;28;20041;-66
2023/09/06 06:50:46;;;;;;;0.00;0.00;;;;;;;27.67;49.37;102091.72;5086236;28;20410;-66
2023/09/06 06:53:11;;;;;;;0.00;0.00;;;;;;;27.67;50.14;102098.06;5081447;28;20114;-68
2023/09/06 06:55:37;;;;;;;0.00;0.00;;;;;;;27.84;49.36;102097.41;5090376;28;20047;-67
2023/09/06 06:58:03;;;;;;;0.00;0.00;;;;;;;28.06;48.67;102100.25;5091290;28;20028;-67
2023/09/06 07:00:32;;;;;;;0.00;0.00;;;;;;;28.16;48.88;102100.03;5073072;28;20032;-67
2023/09/06 07:03:00;;;;;;;0.00;0.00;;;;;;;27.75;50.50;102102.84;5091058;28;20119;-67
2023/09/06 07:05:26;;;;;;;0.00;0.00;;;;;;;28.30;48.46;102099.97;5085191;28;20038;-68
2023/09/06 07:07:51;;;;;;;0.00;0.00;;;;;;;28.28;48.43;102103.06;5085757;28;20709;-67
2023/09/06 07:10:17;;;;;;;0.00;0.00;;;;;;;28.31;48.28;102102.41;5086949;28;20036;-67
2023/09/06 07:12:43;;;;;;;0.00;0.00;;;;;;;28.19;48.83;102104.91;5072630;28;20499;-67
2023/09/06 07:15:09;;;;;;;0.00;0.00;;;;;;;28.06;49.80;102108.53;5088733;28;20028;-66
2023/09/06 07:17:35;;;;;;;0.00;0.00;;;;;;;28.02;49.18;102113.06;5072037;28;20029;-66
2023/09/06 07:20:01;;;;;;;0.00;0.00;;;;;;;28.51;48.07;102114.91;5087846;28;20035;-65
2023/09/06 07:22:26;;;;;;;0.00;0.00;;;;;;;28.39;48.20;102120.19;5070042;28;20736;-67
2023/09/06 07:24:52;;;;;;;0.00;0.00;;;;;;;28.36;49.00;102116.09;5090303;28;20028;-68
2023/09/06 07:27:17;;;;;;;0.00;0.00;;;;;;;28.94;47.35;102116.03;5091026;28;20059;-66
2023/09/06 07:29:42;;;;;;;0.00;0.00;;;;;;;28.75;48.17;102122.94;5082011;28;20550;-67
2023/09/06 07:32:08;;;;;;;0.00;0.00;;;;;;;28.61;48.83;102120.22;5091033;28;20683;-66
2023/09/06 07:34:33;;;;;;;0.00;0.00;;;;;;;28.69;48.09;102121.41;5080924;28;20488;-67
2023/09/06 07:36:59;;;;;;;0.00;0.00;;;;;;;28.84;47.36;102129.31;5085842;28;20043;-67
2023/09/06 07:39:24;;;;;;;0.00;0.00;;;;;;;29.07;46.86;102122.63;5090241;28;20036;-68
2023/09/06 07:41:53;;;;;;;0.00;0.00;;;;;;;29.20;46.88;102125.31;5090527;28;20146;-66
2023/09/06 07:44:19;;;;;;;0.00;0.00;;;;;;;29.32;46.75;102130.25;5083670;28;20059;-67
2023/09/06 07:46:48;;;;;;;0.00;0.00;;;;;;;29.74;45.55;102126.03;5086546;28;20583;-66
2023/09/06 07:49:18;;;;;;;0.00;0.00;;;;;;;29.66;45.16;102122.03;5090177;28;20051;-66
2023/09/06 07:51:44;;;;;;;0.00;0.00;;;;;;;30.48;43.58;102121.19;5090277;28;20040;-66
2023/09/06 07:54:10;;;;;;;0.00;0.00;;;;;;;30.81;42.72;102119.50;5089968;28;20119;-67
2023/09/06 07:56:35;;;;;;;0.00;0.00;;;;;;;30.27;44.03;102121.00;5081086;28;20040;-66
2023/09/06 07:59:01;;;;;;;0.00;0.00;;;;;;;30.21;43.76;102122.31;5090541;28;20024;-66
2023/09/06 08:01:26;;;;;;;0.00;0.00;;;;;;;29.71;45.32;102119.16;5089449;28;20032;-67
2023/09/06 08:03:52;;;;;;;0.00;0.00;;;;;;;29.90;44.46;102119.69;5090102;28;20035;-68
2023/09/06 08:06:17;;;;;;;0.00;0.00;;;;;;;30.05;44.03;102126.72;5081281;28;20106;-67
2023/09/06 08:08:43;;;;;;;0.00;0.00;;;;;;;29.70;44.67;102134.09;5071089;28;20043;-67
2023/09/06 08:11:09;;;;;;;0.00;0.00;;;;;;;29.96;44.07;102131.41;5090774;28;20425;-67
2023/09/06 08:13:37;;;;;;;0.00;0.00;;;;;;;30.18;43.33;102134.88;5089809;28;20028;-67
2023/09/06 08:16:02;;;;;;;0.00;0.00;;;;;;;30.14;43.58;102131.13;5085726;28;20036;-66
2023/09/06 08:18:28;;;;;;;0.00;0.00;;;;;;;30.33;43.62;102133.59;5081395;28;20040;-67
2023/09/06 08:20:53;;;;;;;0.00;0.00;;;;;;;30.54;43.14;102134.56;5089803;28;20035;-66
2023/09/06 08:23:19;;;;;;;0.00;0.00;;;;;;;30.72;42.76;102133.38;5087855;28;20028;-65
2023/09/06 08:25:46;;;;;;;0.00;0.00;;;;;;;30.79;41.91;102139.25;5090010;28;20031;-66
2023/09/06 08:28:14;;;;;;;0.00;0.00;;;;;;;30.91;42.33;102141.38;5089367;28;20036;-66
2023/09/06 08:30:41;;;;;;;0.00;0.00;;;;;;;30.73;42.76;102146.13;5089953;28;20028;-66
2023/09/06 08:33:06;;;;;;;0.00;0.00;;;;;;;31.11;41.76;102144.25;5089678;28;20048;-66
2023/09/06 08:35:32;;;;;;;0.00;0.00;;;;;;;30.88;41.79;102145.63;5078246;28;20168;-67
2023/09/06 08:37:58;;;;;;;0.00;0.00;;;;;;;31.33;41.18;102145.97;5090265;28;20031;-65
2023/09/06 08:40:23;;;;;;;0.00;0.00;;;;;;;31.41;40.90;102144.34;5089014;28;20039;-66
2023/09/06 08:42:49;;;;;;;0.00;0.00;;;;;;;31.00;40.90;102148.53;5087074;28;20081;-66
2023/09/06 08:45:21;;;;;;;0.00;0.00;;;;;;;31.24;41.10;102144.38;5089192;28;20043;-66
2023/09/06 08:47:48;;;;;;;0.00;0.00;;;;;;;30.91;41.79;102146.94;5088836;28;20040;-66
2023/09/06 08:50:14;;;;;;;0.00;0.00;;;;;;;31.34;41.51;102155.94;5088845;28;20028;-66
2023/09/06 08:52:41;;;;;;;0.00;0.00;;;;;;;31.86;40.38;102151.75;5089727;28;20091;-66
2023/09/06 08:55:09;;;;;;;0.00;0.00;;;;;;;31.92;40.05;102150.44;5088289;28;20028;-66
2023/09/06 08:57:35;;;;;;;0.00;0.00;;;;;;;32.57;38.75;102148.97;5088611;28;20032;-66
2023/09/06 09:00:03;;;;;;;0.00;0.00;;;;;;;32.58;38.30;102150.59;5070595;28;20036;-66
2023/09/06 09:02:28;;;;;;;0.00;0.00;;;;;;;32.83;37.89;102146.72;5085083;28;20036;-66
2023/09/06 09:04:53;;;;;;;0.00;0.00;;;;;;;32.43;38.95;102148.41;5082718;28;20009;-66
2023/09/06 09:07:19;;;;;;;0.00;0.00;;;;;;;32.47;39.96;102154.97;5089210;28;20032;-66
2023/09/06 09:10:04;;;;;;;0.00;0.00;;;;;;;32.60;38.12;102154.66;5088418;28;20040;-67
2023/09/06 09:12:30;;;;;;;0.00;0.00;;;;;;;32.59;38.91;102146.66;5088171;28;20043;-67
2023/09/06 09:14:56;;;;;;;0.00;0.00;;;;;;;33.08;37.89;102154.00;5087733;28;20047;-67
2023/09/06 09:17:24;;;;;;;0.00;0.00;;;;;;;32.98;37.94;102154.47;5084841;28;20123;-67
2023/09/06 09:20:00;;;;;;;0.00;0.00;;;;;;;33.07;37.81;102148.78;5089319;28;20027;-68
2023/09/06 09:22:30;;;;;;;0.00;0.00;;;;;;;32.22;39.30;102150.38;5085808;28;20873;-66
2023/09/06 09:24:58;;;;;;;0.00;0.00;;;;;;;33.25;37.54;102144.63;5088009;28;20029;-67
2023/09/06 09:27:25;;;;;;;0.00;0.00;;;;;;;33.45;37.19;102154.88;5088846;28;20160;-66
2023/09/06 09:29:51;;;;;;;0.00;0.00;;;;;;;33.30;37.43;102159.16;5088559;28;20032;-66
2023/09/06 09:32:17;;;;;;;0.00;0.00;;;;;;;33.34;38.07;102157.28;5088062;28;20027;-65
2023/09/06 09:34:44;;;;;;;0.00;0.00;;;;;;;33.39;37.44;102145.13;5083239;28;20016;-65
2023/09/06 09:37:10;;;;;;;0.00;0.00;;;;;;;33.16;37.33;102155.88;5087529;28;20123;-66
2023/09/06 09:39:37;;;;;;;0.00;0.00;;;;;;;33.33;36.01;102152.91;5087450;28;20032;-67
2023/09/06 09:42:03;;;;;;;0.00;0.00;;;;;;;33.68;35.79;102148.50;5088583;28;20067;-66
2023/09/06 09:44:29;;;;;;;0.00;0.00;;;;;;;33.52;35.79;102150.38;5087693;28;20027;-66
2023/09/06 09:46:57;;;;;;;0.00;0.00;;;;;;;33.95;35.15;102149.75;5088217;28;20031;-66
2023/09/06 09:49:22;;;;;;;0.00;0.00;;;;;;;33.18;37.72;102141.63;5085593;28;20054;-65
2023/09/06 09:51:50;;;;;;;0.00;0.00;;;;;;;33.52;36.85;102144.78;5088156;28;20028;-65
2023/09/06 09:54:17;;;;;;;0.00;0.00;;;;;;;33.82;36.89;102150.13;5069426;28;20032;-67
2023/09/06 09:56:51;;;;;;;0.00;0.00;;;;;;;34.31;35.57;102146.88;5088335;28;20066;-67
2023/09/06 09:59:19;;;;;;;0.00;0.00;;;;;;;34.57;35.57;102146.47;5086856;28;20032;-66
2023/09/06 10:01:44;;;;;;;0.00;0.00;;;;;;;34.00;36.24;102143.16;5088831;28;20399;-66
2023/09/06 10:04:13;;;;;;;0.00;0.00;;;;;;;34.78;35.64;102147.06;5078770;28;20033;-66
2023/09/06 10:06:38;;;;;;;0.00;0.00;;;;;;;34.72;36.66;102144.88;5074540;28;20036;-66
2023/09/06 10:09:12;;;;;;;0.00;0.00;;;;;;;34.60;36.38;102145.75;5077920;28;20049;-66
2023/09/06 10:11:40;;;;;;;0.00;0.00;;;;;;;34.58;37.22;102136.91;5087694;28;20031;-67
2023/09/06 10:14:06;;;;;;;0.00;0.00;;;;;;;34.30;37.74;102142.47;5088971;28;20472;-67
2023/09/06 10:16:32;;;;;;;0.00;0.00;;;;;;;34.77;36.50;102141.81;5085097;28;20155;-66
2023/09/06 10:18:58;;;;;;;0.00;0.00;;;;;;;34.81;34.91;102139.94;5087618;28;20047;-66
2023/09/06 10:21:24;;;;;;;0.00;0.00;;;;;;;34.59;35.08;102132.13;5088284;28;20032;-66
2023/09/06 10:23:50;;;;;;;0.00;0.00;;;;;;;34.91;33.95;102123.44;5087770;28;20036;-66
2023/09/06 10:26:26;;;;;;;0.00;0.00;;;;;;;35.27;34.19;102120.44;5091388;28;20020;-67
2023/09/06 10:28:59;;;;;;;0.00;0.00;;;;;;;35.53;34.28;102110.69;5092409;28;20464;-66
2023/09/06 10:31:47;;;;;;;0.00;0.00;;;;;;;35.60;33.58;102114.44;5092445;28;20031;-66
2023/09/06 10:34:13;;;;;;;0.00;0.00;;;;;;;35.74;33.74;102119.56;5089878;28;20035;-67
2023/09/06 10:37:00;;;;;;;0.00;0.00;;;;;;;35.95;33.32;102123.69;5087486;28;20038;-66
2023/09/06 10:39:28;;;;;;;0.00;0.00;;;;;;;35.27;33.28;102114.84;5073273;28;20105;-66
2023/09/06 10:42:09;;;;;;;0.00;0.00;;;;;;;35.70;34.00;102116.69;5091836;28;20065;-66
2023/09/06 10:44:56;;;;;;;0.00;0.00;;;;;;;35.82;33.60;102118.53;5091604;28;20032;-66
2023/09/06 10:47:30;;;;;;;0.00;0.00;;;;;;;35.78;33.87;102123.25;5082855;28;20036;-66
2023/09/06 10:50:15;;;;;;;0.00;0.00;;;;;;;36.34;31.89;102120.91;5088763;28;20061;-66
2023/09/06 10:52:58;;;;;;;0.00;0.00;;;;;;;35.80;33.01;102118.91;5091814;28;20046;-65
2023/09/06 10:55:30;;;;;;;0.00;0.00;;;;;;;36.08;32.83;102132.75;5090563;28;20433;-66
2023/09/06 10:57:58;;;;;;;0.00;0.00;;;;;;;36.30;33.39;102120.03;5089992;28;20487;-65
2023/09/06 11:00:30;;;;;;;0.00;0.00;;;;;;;36.14;33.82;102118.13;5090721;28;20040;-65
2023/09/06 11:03:08;;;;;;;0.00;0.00;;;;;;;36.58;32.72;102120.63;5091102;28;20036;-65
2023/09/06 11:05:42;;;;;;;0.00;0.00;;;;;;;36.74;32.54;102108.13;5089926;28;20043;-67
2023/09/06 11:08:09;;;;;;;0.00;0.00;;;;;;;37.01;31.45;102117.44;5091673;28;20115;-66
2023/09/06 11:10:35;;;;;;;0.00;0.00;;;;;;;36.24;31.75;102108.31;5091111;28;20032;-66
2023/09/06 11:13:16;;;;;;;0.00;0.00;;;;;;;36.66;32.35;102111.19;5090808;28;20038;-66
2023/09/06 11:15:43;;;;;;;0.00;0.00;;;;;;;37.11;31.30;102113.19;5077891;28;20365;-66
2023/09/06 11:18:09;;;;;;;0.00;0.00;;;;;;;37.68;30.72;102113.72;5073112;28;20733;-66
2023/09/06 11:20:35;;;;;;;0.00;0.00;;;;;;;37.40;30.64;102115.31;5083771;28;20091;-66
2023/09/06 11:23:02;;;;;;;0.00;0.00;;;;;;;37.24;30.58;102109.00;5087731;28;20016;-66
2023/09/06 11:25:29;;;;;;;0.00;0.00;;;;;;;36.96;30.96;102104.53;5071530;28;20055;-66